sensor_id;sensor_type;location;lat;lon;timestamp;P1;durP1;ratioP1;P2;durP2;ratioP2
69244;SDS011;56357;52.304;4.870;2022-09-03T00:00:54;5.67;;;1.20;;
69244;SDS011;56357;52.304;4.870;2022-09-03T00:03:26;3.63;;;1.13;;
69244;SDS011;56357;52.304;4.870;2022-09-03T00:06:17;5.50;;;1.35;;
69244;SDS011;56357;52.304;4.870;2022-09-03T00:14:22;4.10;;;1.27;;
69244;SDS011;56357;52.304;4.870;2022-09-03T00:16:56;3.60;;;1.10;;
69244;SDS011;56357;52.304;4.870;2022-09-03T00:19:30;3.58;;;1.30;;
69244;SDS011;56357;52.304;4.870;2022-09-03T00:22:02;3.42;;;1.08;;
69244;SDS011;56357;52.304;4.870;2022-09-03T00:24:35;3.97;;;1.10;;
69244;SDS011;56357;52.304;4.870;2022-09-03T00:27:05;3.93;;;1.20;;
69244;SDS011;56357;52.304;4.870;2022-09-03T00:29:42;4.28;;;1.30;;
69244;SDS011;56357;52.304;4.870;2022-09-03T00:32:26;4.97;;;1.35;;
69244;SDS011;56357;52.304;4.870;2022-09-03T00:35:01;3.78;;;1.15;;
69244;SDS011;56357;52.304;4.870;2022-09-03T00:37:31;3.55;;;1.10;;
69244;SDS011;56357;52.304;4.870;2022-09-03T00:39:59;3.50;;;1.10;;
69244;SDS011;56357;52.304;4.870;2022-09-03T00:42:37;4.60;;;1.20;;
69244;SDS011;56357;52.304;4.870;2022-09-03T00:45:22;3.72;;;1.20;;
69244;SDS011;56357;52.304;4.870;2022-09-03T00:48:05;3.78;;;1.10;;
69244;SDS011;56357;52.304;4.870;2022-09-03T01:02:11;5.25;;;1.27;;
69244;SDS011;56357;52.304;4.870;2022-09-03T01:10:24;4.78;;;1.30;;
69244;SDS011;56357;52.304;4.870;2022-09-03T01:18:34;3.00;;;0.95;;
69244;SDS011;56357;52.304;4.870;2022-09-03T01:30:05;4.50;;;1.08;;
69244;SDS011;56357;52.304;4.870;2022-09-03T01:32:59;3.70;;;1.10;;
69244;SDS011;56357;52.304;4.870;2022-09-03T01:38:59;3.75;;;1.00;;
69244;SDS011;56357;52.304;4.870;2022-09-03T01:55:35;4.65;;;0.82;;
69244;SDS011;56357;52.304;4.870;2022-09-03T01:58:35;4.20;;;0.93;;
69244;SDS011;56357;52.304;4.870;2022-09-03T02:01:09;5.40;;;1.35;;
69244;SDS011;56357;52.304;4.870;2022-09-03T02:03:42;5.67;;;1.00;;
69244;SDS011;56357;52.304;4.870;2022-09-03T02:06:10;4.50;;;1.02;;
69244;SDS011;56357;52.304;4.870;2022-09-03T02:08:37;3.70;;;1.02;;
69244;SDS011;56357;52.304;4.870;2022-09-03T02:11:06;5.68;;;1.08;;
69244;SDS011;56357;52.304;4.870;2022-09-03T02:16:10;3.30;;;0.80;;
69244;SDS011;56357;52.304;4.870;2022-09-03T02:18:41;5.13;;;1.00;;
69244;SDS011;56357;52.304;4.870;2022-09-03T02:21:12;3.25;;;0.90;;
69244;SDS011;56357;52.304;4.870;2022-09-03T02:23:41;4.18;;;1.00;;
69244;SDS011;56357;52.304;4.870;2022-09-03T02:26:09;4.25;;;1.10;;
69244;SDS011;56357;52.304;4.870;2022-09-03T02:28:38;3.50;;;0.90;;
69244;SDS011;56357;52.304;4.870;2022-09-03T02:31:05;4.45;;;1.05;;
69244;SDS011;56357;52.304;4.870;2022-09-03T02:33:34;4.20;;;1.10;;
69244;SDS011;56357;52.304;4.870;2022-09-03T02:36:04;3.65;;;1.20;;
69244;SDS011;56357;52.304;4.870;2022-09-03T02:38:33;5.70;;;0.95;;
69244;SDS011;56357;52.304;4.870;2022-09-03T02:41:00;5.27;;;1.10;;
69244;SDS011;56357;52.304;4.870;2022-09-03T02:43:34;3.67;;;1.10;;
69244;SDS011;56357;52.304;4.870;2022-09-03T02:46:07;4.07;;;0.80;;
69244;SDS011;56357;52.304;4.870;2022-09-03T02:48:37;3.42;;;0.93;;
69244;SDS011;56357;52.304;4.870;2022-09-03T02:51:04;4.90;;;0.85;;
69244;SDS011;56357;52.304;4.870;2022-09-03T02:53:30;4.30;;;0.90;;
69244;SDS011;56357;52.304;4.870;2022-09-03T02:55:57;3.78;;;1.00;;
69244;SDS011;56357;52.304;4.870;2022-09-03T02:58:25;5.85;;;1.25;;
69244;SDS011;56357;52.304;4.870;2022-09-03T03:00:51;3.88;;;0.98;;
69244;SDS011;56357;52.304;4.870;2022-09-03T03:03:18;3.67;;;1.30;;
69244;SDS011;56357;52.304;4.870;2022-09-03T03:05:57;3.87;;;0.97;;
69244;SDS011;56357;52.304;4.870;2022-09-03T03:08:29;3.17;;;1.10;;
69244;SDS011;56357;52.304;4.870;2022-09-03T03:10:58;3.40;;;0.95;;
69244;SDS011;56357;52.304;4.870;2022-09-03T03:13:25;3.45;;;1.20;;
69244;SDS011;56357;52.304;4.870;2022-09-03T03:15:59;5.18;;;0.90;;
69244;SDS011;56357;52.304;4.870;2022-09-03T03:18:26;3.53;;;0.73;;
69244;SDS011;56357;52.304;4.870;2022-09-03T03:20:53;3.78;;;1.00;;
69244;SDS011;56357;52.304;4.870;2022-09-03T03:23:20;4.03;;;1.10;;
69244;SDS011;56357;52.304;4.870;2022-09-03T03:25:46;5.45;;;1.25;;
69244;SDS011;56357;52.304;4.870;2022-09-03T03:28:13;3.50;;;1.10;;
69244;SDS011;56357;52.304;4.870;2022-09-03T03:30:39;4.40;;;1.17;;
69244;SDS011;56357;52.304;4.870;2022-09-03T03:33:07;5.03;;;1.10;;
69244;SDS011;56357;52.304;4.870;2022-09-03T03:35:35;3.92;;;1.00;;
69244;SDS011;56357;52.304;4.870;2022-09-03T03:38:01;3.15;;;0.88;;
69244;SDS011;56357;52.304;4.870;2022-09-03T03:40:28;3.05;;;0.90;;
69244;SDS011;56357;52.304;4.870;2022-09-03T03:42:56;5.00;;;0.90;;
69244;SDS011;56357;52.304;4.870;2022-09-03T03:45:23;4.05;;;1.10;;
69244;SDS011;56357;52.304;4.870;2022-09-03T03:47:49;4.45;;;1.10;;
69244;SDS011;56357;52.304;4.870;2022-09-03T03:50:16;3.00;;;0.70;;
69244;SDS011;56357;52.304;4.870;2022-09-03T03:52:43;3.28;;;1.08;;
69244;SDS011;56357;52.304;4.870;2022-09-03T03:55:10;3.20;;;0.70;;
69244;SDS011;56357;52.304;4.870;2022-09-03T03:57:36;3.10;;;0.60;;
69244;SDS011;56357;52.304;4.870;2022-09-03T04:00:03;5.88;;;0.90;;
69244;SDS011;56357;52.304;4.870;2022-09-03T04:02:29;4.45;;;1.08;;
69244;SDS011;56357;52.304;4.870;2022-09-03T04:04:56;3.72;;;0.82;;
69244;SDS011;56357;52.304;4.870;2022-09-03T04:07:22;3.17;;;0.80;;
69244;SDS011;56357;52.304;4.870;2022-09-03T04:09:48;5.28;;;1.05;;
69244;SDS011;56357;52.304;4.870;2022-09-03T04:12:15;3.47;;;1.10;;
69244;SDS011;56357;52.304;4.870;2022-09-03T04:14:43;4.35;;;1.00;;
69244;SDS011;56357;52.304;4.870;2022-09-03T04:17:09;3.35;;;0.88;;
69244;SDS011;56357;52.304;4.870;2022-09-03T04:19:35;4.00;;;1.17;;
69244;SDS011;56357;52.304;4.870;2022-09-03T04:22:02;3.28;;;0.88;;
69244;SDS011;56357;52.304;4.870;2022-09-03T04:24:28;4.35;;;1.10;;
69244;SDS011;56357;52.304;4.870;2022-09-03T04:26:55;3.42;;;1.00;;
69244;SDS011;56357;52.304;4.870;2022-09-03T04:29:21;3.83;;;0.98;;
69244;SDS011;56357;52.304;4.870;2022-09-03T04:31:47;3.37;;;0.90;;
69244;SDS011;56357;52.304;4.870;2022-09-03T04:34:27;3.88;;;1.08;;
69244;SDS011;56357;52.304;4.870;2022-09-03T04:36:54;3.35;;;0.90;;
69244;SDS011;56357;52.304;4.870;2022-09-03T04:39:21;3.10;;;0.88;;
69244;SDS011;56357;52.304;4.870;2022-09-03T04:41:47;4.93;;;1.10;;
69244;SDS011;56357;52.304;4.870;2022-09-03T04:44:14;3.73;;;0.90;;
69244;SDS011;56357;52.304;4.870;2022-09-03T04:46:40;3.90;;;0.95;;
69244;SDS011;56357;52.304;4.870;2022-09-03T04:49:08;4.95;;;1.00;;
69244;SDS011;56357;52.304;4.870;2022-09-03T04:51:34;4.55;;;0.95;;
69244;SDS011;56357;52.304;4.870;2022-09-03T04:54:01;3.75;;;0.98;;
69244;SDS011;56357;52.304;4.870;2022-09-03T04:56:32;3.80;;;1.10;;
69244;SDS011;56357;52.304;4.870;2022-09-03T04:59:01;3.40;;;0.93;;
69244;SDS011;56357;52.304;4.870;2022-09-03T05:01:31;5.45;;;1.13;;
69244;SDS011;56357;52.304;4.870;2022-09-03T05:03:59;3.03;;;0.73;;
69244;SDS011;56357;52.304;4.870;2022-09-03T05:06:26;4.20;;;1.13;;
69244;SDS011;56357;52.304;4.870;2022-09-03T05:08:54;5.70;;;1.37;;
69244;SDS011;56357;52.304;4.870;2022-09-03T05:11:22;7.28;;;0.90;;
69244;SDS011;56357;52.304;4.870;2022-09-03T05:13:50;4.40;;;1.02;;
69244;SDS011;56357;52.304;4.870;2022-09-03T05:16:18;3.95;;;0.93;;
69244;SDS011;56357;52.304;4.870;2022-09-03T05:18:45;4.07;;;1.02;;
69244;SDS011;56357;52.304;4.870;2022-09-03T05:21:16;3.97;;;1.03;;
69244;SDS011;56357;52.304;4.870;2022-09-03T05:23:44;4.38;;;1.00;;
69244;SDS011;56357;52.304;4.870;2022-09-03T05:26:12;4.53;;;0.90;;
69244;SDS011;56357;52.304;4.870;2022-09-03T05:28:41;4.32;;;0.80;;
69244;SDS011;56357;52.304;4.870;2022-09-03T05:31:10;3.58;;;0.90;;
69244;SDS011;56357;52.304;4.870;2022-09-03T05:33:38;4.07;;;0.80;;
69244;SDS011;56357;52.304;4.870;2022-09-03T05:36:07;4.25;;;0.90;;
69244;SDS011;56357;52.304;4.870;2022-09-03T05:38:36;5.00;;;1.02;;
69244;SDS011;56357;52.304;4.870;2022-09-03T05:41:04;4.63;;;1.10;;
69244;SDS011;56357;52.304;4.870;2022-09-03T05:43:32;4.55;;;1.17;;
69244;SDS011;56357;52.304;4.870;2022-09-03T05:46:00;5.20;;;0.87;;
69244;SDS011;56357;52.304;4.870;2022-09-03T05:48:28;4.50;;;0.95;;
69244;SDS011;56357;52.304;4.870;2022-09-03T05:51:02;5.03;;;1.02;;
69244;SDS011;56357;52.304;4.870;2022-09-03T05:53:31;4.50;;;1.00;;
69244;SDS011;56357;52.304;4.870;2022-09-03T05:56:00;6.07;;;1.30;;
69244;SDS011;56357;52.304;4.870;2022-09-03T05:58:30;3.77;;;1.00;;
69244;SDS011;56357;52.304;4.870;2022-09-03T06:00:58;4.95;;;1.10;;
69244;SDS011;56357;52.304;4.870;2022-09-03T06:03:25;5.05;;;1.17;;
69244;SDS011;56357;52.304;4.870;2022-09-03T06:05:52;4.53;;;1.08;;
69244;SDS011;56357;52.304;4.870;2022-09-03T06:08:20;4.20;;;1.00;;
69244;SDS011;56357;52.304;4.870;2022-09-03T06:10:47;5.20;;;1.07;;
69244;SDS011;56357;52.304;4.870;2022-09-03T06:13:13;4.20;;;0.90;;
69244;SDS011;56357;52.304;4.870;2022-09-03T06:15:39;3.38;;;1.00;;
69244;SDS011;56357;52.304;4.870;2022-09-03T06:18:06;5.45;;;1.20;;
69244;SDS011;56357;52.304;4.870;2022-09-03T06:20:32;4.55;;;0.98;;
69244;SDS011;56357;52.304;4.870;2022-09-03T06:22:59;2.90;;;0.90;;
69244;SDS011;56357;52.304;4.870;2022-09-03T06:25:25;3.60;;;0.90;;
69244;SDS011;56357;52.304;4.870;2022-09-03T06:27:51;6.15;;;1.23;;
69244;SDS011;56357;52.304;4.870;2022-09-03T06:30:18;5.65;;;1.35;;
69244;SDS011;56357;52.304;4.870;2022-09-03T06:32:45;3.65;;;0.80;;
69244;SDS011;56357;52.304;4.870;2022-09-03T06:35:12;4.40;;;1.00;;
69244;SDS011;56357;52.304;4.870;2022-09-03T06:37:39;3.22;;;0.73;;
69244;SDS011;56357;52.304;4.870;2022-09-03T06:40:06;5.75;;;1.10;;
69244;SDS011;56357;52.304;4.870;2022-09-03T06:42:40;5.68;;;1.27;;
69244;SDS011;56357;52.304;4.870;2022-09-03T06:45:07;5.30;;;1.10;;
69244;SDS011;56357;52.304;4.870;2022-09-03T06:47:35;4.70;;;1.10;;
69244;SDS011;56357;52.304;4.870;2022-09-03T06:50:01;6.85;;;1.00;;
69244;SDS011;56357;52.304;4.870;2022-09-03T06:52:28;6.28;;;1.20;;
69244;SDS011;56357;52.304;4.870;2022-09-03T06:54:55;5.53;;;1.00;;
69244;SDS011;56357;52.304;4.870;2022-09-03T06:57:22;3.97;;;0.95;;
69244;SDS011;56357;52.304;4.870;2022-09-03T06:59:48;4.53;;;1.00;;
69244;SDS011;56357;52.304;4.870;2022-09-03T07:02:14;4.60;;;0.95;;
69244;SDS011;56357;52.304;4.870;2022-09-03T07:04:42;3.47;;;1.17;;
69244;SDS011;56357;52.304;4.870;2022-09-03T07:07:08;4.32;;;0.80;;
69244;SDS011;56357;52.304;4.870;2022-09-03T07:09:37;4.35;;;1.10;;
69244;SDS011;56357;52.304;4.870;2022-09-03T07:12:04;4.87;;;0.73;;
69244;SDS011;56357;52.304;4.870;2022-09-03T07:14:31;5.20;;;0.95;;
69244;SDS011;56357;52.304;4.870;2022-09-03T07:16:57;5.95;;;1.13;;
69244;SDS011;56357;52.304;4.870;2022-09-03T07:19:24;4.55;;;0.98;;
69244;SDS011;56357;52.304;4.870;2022-09-03T07:21:50;7.00;;;1.20;;
69244;SDS011;56357;52.304;4.870;2022-09-03T07:24:17;7.77;;;1.17;;
69244;SDS011;56357;52.304;4.870;2022-09-03T07:26:45;7.55;;;0.90;;
69244;SDS011;56357;52.304;4.870;2022-09-03T07:29:12;5.93;;;0.90;;
69244;SDS011;56357;52.304;4.870;2022-09-03T07:31:40;5.70;;;0.98;;
69244;SDS011;56357;52.304;4.870;2022-09-03T07:34:09;7.65;;;1.60;;
69244;SDS011;56357;52.304;4.870;2022-09-03T07:36:41;6.40;;;1.10;;
69244;SDS011;56357;52.304;4.870;2022-09-03T07:39:11;12.95;;;1.30;;
69244;SDS011;56357;52.304;4.870;2022-09-03T07:41:39;7.47;;;1.30;;
69244;SDS011;56357;52.304;4.870;2022-09-03T07:44:07;7.45;;;1.02;;
69244;SDS011;56357;52.304;4.870;2022-09-03T07:46:35;8.40;;;1.20;;
69244;SDS011;56357;52.304;4.870;2022-09-03T07:49:03;6.23;;;1.27;;
69244;SDS011;56357;52.304;4.870;2022-09-03T07:51:34;4.95;;;0.90;;
69244;SDS011;56357;52.304;4.870;2022-09-03T07:54:03;16.13;;;1.52;;
69244;SDS011;56357;52.304;4.870;2022-09-03T07:56:31;11.80;;;1.20;;
69244;SDS011;56357;52.304;4.870;2022-09-03T07:58:59;5.65;;;1.20;;
69244;SDS011;56357;52.304;4.870;2022-09-03T08:01:27;5.47;;;1.10;;
69244;SDS011;56357;52.304;4.870;2022-09-03T08:03:55;6.32;;;1.00;;
69244;SDS011;56357;52.304;4.870;2022-09-03T08:06:23;4.65;;;0.70;;
69244;SDS011;56357;52.304;4.870;2022-09-03T08:08:54;6.00;;;0.90;;
69244;SDS011;56357;52.304;4.870;2022-09-03T08:11:23;5.40;;;1.10;;
69244;SDS011;56357;52.304;4.870;2022-09-03T08:13:54;10.27;;;1.33;;
69244;SDS011;56357;52.304;4.870;2022-09-03T08:16:27;5.95;;;1.10;;
69244;SDS011;56357;52.304;4.870;2022-09-03T08:18:55;5.50;;;0.80;;
69244;SDS011;56357;52.304;4.870;2022-09-03T08:21:22;6.15;;;1.10;;
69244;SDS011;56357;52.304;4.870;2022-09-03T08:23:50;3.63;;;0.90;;
69244;SDS011;56357;52.304;4.870;2022-09-03T08:26:19;4.70;;;0.80;;
69244;SDS011;56357;52.304;4.870;2022-09-03T08:28:46;5.30;;;0.95;;
69244;SDS011;56357;52.304;4.870;2022-09-03T08:31:15;4.07;;;1.20;;
69244;SDS011;56357;52.304;4.870;2022-09-03T08:33:44;5.38;;;1.17;;
69244;SDS011;56357;52.304;4.870;2022-09-03T08:38:41;7.30;;;0.90;;
69244;SDS011;56357;52.304;4.870;2022-09-03T08:49:25;5.55;;;1.00;;
69244;SDS011;56357;52.304;4.870;2022-09-03T08:51:56;6.30;;;1.00;;
69244;SDS011;56357;52.304;4.870;2022-09-03T08:54:27;4.05;;;0.80;;
69244;SDS011;56357;52.304;4.870;2022-09-03T08:56:57;4.15;;;1.05;;
69244;SDS011;56357;52.304;4.870;2022-09-03T08:59:27;3.88;;;0.85;;
69244;SDS011;56357;52.304;4.870;2022-09-03T09:02:38;4.55;;;1.08;;
69244;SDS011;56357;52.304;4.870;2022-09-03T09:04:59;3.87;;;0.90;;
69244;SDS011;56357;52.304;4.870;2022-09-03T09:07:41;5.25;;;0.80;;
69244;SDS011;56357;52.304;4.870;2022-09-03T09:10:30;3.60;;;0.80;;
69244;SDS011;56357;52.304;4.870;2022-09-03T09:16:07;4.03;;;1.20;;
69244;SDS011;56357;52.304;4.870;2022-09-03T09:21:29;4.15;;;1.20;;
69244;SDS011;56357;52.304;4.870;2022-09-03T09:24:03;4.07;;;1.20;;
69244;SDS011;56357;52.304;4.870;2022-09-03T09:26:42;4.72;;;0.90;;
69244;SDS011;56357;52.304;4.870;2022-09-03T09:29:09;3.58;;;0.80;;
69244;SDS011;56357;52.304;4.870;2022-09-03T09:31:38;3.40;;;0.90;;
69244;SDS011;56357;52.304;4.870;2022-09-03T09:34:09;3.90;;;0.73;;
69244;SDS011;56357;52.304;4.870;2022-09-03T09:36:54;4.50;;;0.90;;
69244;SDS011;56357;52.304;4.870;2022-09-03T09:39:21;3.53;;;0.90;;
69244;SDS011;56357;52.304;4.870;2022-09-03T09:42:01;5.00;;;1.02;;
69244;SDS011;56357;52.304;4.870;2022-09-03T09:44:33;5.10;;;0.80;;
69244;SDS011;56357;52.304;4.870;2022-09-03T09:47:10;4.07;;;0.85;;
69244;SDS011;56357;52.304;4.870;2022-09-03T09:49:50;4.53;;;0.80;;
69244;SDS011;56357;52.304;4.870;2022-09-03T09:52:18;3.55;;;0.88;;
69244;SDS011;56357;52.304;4.870;2022-09-03T09:54:49;3.42;;;0.80;;
69244;SDS011;56357;52.304;4.870;2022-09-03T09:57:20;3.93;;;0.93;;
69244;SDS011;56357;52.304;4.870;2022-09-03T09:59:49;3.00;;;0.80;;
69244;SDS011;56357;52.304;4.870;2022-09-03T10:02:28;4.53;;;1.00;;
69244;SDS011;56357;52.304;4.870;2022-09-03T10:05:11;3.50;;;0.80;;
69244;SDS011;56357;52.304;4.870;2022-09-03T10:07:40;3.45;;;0.88;;
69244;SDS011;56357;52.304;4.870;2022-09-03T10:10:13;5.07;;;0.80;;
69244;SDS011;56357;52.304;4.870;2022-09-03T10:12:45;3.92;;;0.98;;
69244;SDS011;56357;52.304;4.870;2022-09-03T10:20:52;4.53;;;0.95;;
69244;SDS011;56357;52.304;4.870;2022-09-03T10:23:28;5.97;;;0.83;;
69244;SDS011;56357;52.304;4.870;2022-09-03T10:28:28;3.97;;;0.98;;
69244;SDS011;56357;52.304;4.870;2022-09-03T10:30:59;7.07;;;1.15;;
69244;SDS011;56357;52.304;4.870;2022-09-03T10:34:00;7.00;;;1.08;;
69244;SDS011;56357;52.304;4.870;2022-09-03T10:36:57;7.20;;;1.10;;
69244;SDS011;56357;52.304;4.870;2022-09-03T10:42:17;8.23;;;1.00;;
69244;SDS011;56357;52.304;4.870;2022-09-03T10:50:12;5.87;;;0.80;;
69244;SDS011;56357;52.304;4.870;2022-09-03T10:55:40;7.63;;;0.98;;
69244;SDS011;56357;52.304;4.870;2022-09-03T10:58:15;5.65;;;1.00;;
69244;SDS011;56357;52.304;4.870;2022-09-03T11:00:55;5.55;;;1.00;;
69244;SDS011;56357;52.304;4.870;2022-09-03T11:06:24;4.57;;;1.00;;
69244;SDS011;56357;52.304;4.870;2022-09-03T11:09:02;5.35;;;0.93;;
69244;SDS011;56357;52.304;4.870;2022-09-03T11:11:40;5.72;;;1.10;;
69244;SDS011;56357;52.304;4.870;2022-09-03T11:14:12;6.50;;;1.10;;
69244;SDS011;56357;52.304;4.870;2022-09-03T11:16:47;7.23;;;1.27;;
69244;SDS011;56357;52.304;4.870;2022-09-03T11:19:18;4.25;;;1.02;;
69244;SDS011;56357;52.304;4.870;2022-09-03T11:21:52;8.02;;;1.40;;
69244;SDS011;56357;52.304;4.870;2022-09-03T11:24:20;5.50;;;1.00;;
69244;SDS011;56357;52.304;4.870;2022-09-03T11:26:50;7.07;;;1.25;;
69244;SDS011;56357;52.304;4.870;2022-09-03T11:29:28;4.60;;;1.00;;
69244;SDS011;56357;52.304;4.870;2022-09-03T11:32:04;7.20;;;1.20;;
69244;SDS011;56357;52.304;4.870;2022-09-03T11:37:20;5.60;;;1.20;;
69244;SDS011;56357;52.304;4.870;2022-09-03T11:39:57;6.45;;;0.80;;
69244;SDS011;56357;52.304;4.870;2022-09-03T11:42:28;6.17;;;1.10;;
69244;SDS011;56357;52.304;4.870;2022-09-03T11:47:45;6.68;;;0.93;;
69244;SDS011;56357;52.304;4.870;2022-09-03T11:50:17;5.00;;;1.15;;
69244;SDS011;56357;52.304;4.870;2022-09-03T11:52:54;5.60;;;1.00;;
69244;SDS011;56357;52.304;4.870;2022-09-03T11:55:58;7.10;;;1.20;;
69244;SDS011;56357;52.304;4.870;2022-09-03T11:58:28;5.13;;;1.40;;
69244;SDS011;56357;52.304;4.870;2022-09-03T12:01:01;4.57;;;1.20;;
69244;SDS011;56357;52.304;4.870;2022-09-03T12:08:46;5.90;;;1.50;;
69244;SDS011;56357;52.304;4.870;2022-09-03T12:17:07;9.13;;;1.60;;
69244;SDS011;56357;52.304;4.870;2022-09-03T12:22:18;8.83;;;1.40;;
69244;SDS011;56357;52.304;4.870;2022-09-03T12:24:46;5.60;;;1.65;;
69244;SDS011;56357;52.304;4.870;2022-09-03T12:27:18;4.43;;;1.45;;
69244;SDS011;56357;52.304;4.870;2022-09-03T12:29:49;7.05;;;1.55;;
69244;SDS011;56357;52.304;4.870;2022-09-03T12:32:23;5.40;;;1.30;;
69244;SDS011;56357;52.304;4.870;2022-09-03T12:34:51;6.80;;;1.30;;
69244;SDS011;56357;52.304;4.870;2022-09-03T12:37:20;9.35;;;1.60;;
69244;SDS011;56357;52.304;4.870;2022-09-03T12:39:49;9.40;;;1.55;;
69244;SDS011;56357;52.304;4.870;2022-09-03T12:42:19;10.45;;;1.30;;
69244;SDS011;56357;52.304;4.870;2022-09-03T12:44:50;8.98;;;1.60;;
69244;SDS011;56357;52.304;4.870;2022-09-03T12:47:17;8.30;;;1.87;;
69244;SDS011;56357;52.304;4.870;2022-09-03T12:49:46;11.40;;;1.48;;
69244;SDS011;56357;52.304;4.870;2022-09-03T12:52:27;8.13;;;1.80;;
69244;SDS011;56357;52.304;4.870;2022-09-03T12:57:42;11.13;;;1.70;;
69244;SDS011;56357;52.304;4.870;2022-09-03T13:00:13;10.77;;;1.33;;
69244;SDS011;56357;52.304;4.870;2022-09-03T13:02:46;7.28;;;1.45;;
69244;SDS011;56357;52.304;4.870;2022-09-03T13:05:24;7.40;;;1.58;;
69244;SDS011;56357;52.304;4.870;2022-09-03T13:08:22;8.68;;;1.27;;
69244;SDS011;56357;52.304;4.870;2022-09-03T13:10:56;7.63;;;1.60;;
69244;SDS011;56357;52.304;4.870;2022-09-03T13:13:25;7.80;;;2.00;;
69244;SDS011;56357;52.304;4.870;2022-09-03T13:21:35;7.75;;;1.63;;
69244;SDS011;56357;52.304;4.870;2022-09-03T13:24:15;8.20;;;1.95;;
69244;SDS011;56357;52.304;4.870;2022-09-03T13:29:41;11.40;;;2.08;;
69244;SDS011;56357;52.304;4.870;2022-09-03T13:38:15;11.15;;;1.75;;
69244;SDS011;56357;52.304;4.870;2022-09-03T13:40:41;7.83;;;1.67;;
69244;SDS011;56357;52.304;4.870;2022-09-03T13:46:06;8.50;;;2.03;;
69244;SDS011;56357;52.304;4.870;2022-09-03T13:48:43;5.90;;;1.85;;
69244;SDS011;56357;52.304;4.870;2022-09-03T13:51:37;7.72;;;2.00;;
69244;SDS011;56357;52.304;4.870;2022-09-03T13:54:14;6.87;;;1.60;;
69244;SDS011;56357;52.304;4.870;2022-09-03T14:12:59;6.80;;;1.42;;
69244;SDS011;56357;52.304;4.870;2022-09-03T14:15:42;7.80;;;1.73;;
69244;SDS011;56357;52.304;4.870;2022-09-03T14:21:13;7.10;;;1.80;;
69244;SDS011;56357;52.304;4.870;2022-09-03T14:26:29;6.45;;;1.67;;
69244;SDS011;56357;52.304;4.870;2022-09-03T14:29:02;5.93;;;1.88;;
69244;SDS011;56357;52.304;4.870;2022-09-03T14:31:37;6.82;;;1.80;;
69244;SDS011;56357;52.304;4.870;2022-09-03T14:34:16;5.80;;;1.53;;
69244;SDS011;56357;52.304;4.870;2022-09-03T14:42:30;5.63;;;1.50;;
69244;SDS011;56357;52.304;4.870;2022-09-03T14:56:31;5.68;;;1.58;;
69244;SDS011;56357;52.304;4.870;2022-09-03T14:59:07;4.35;;;1.42;;
69244;SDS011;56357;52.304;4.870;2022-09-03T15:01:45;5.20;;;1.70;;
69244;SDS011;56357;52.304;4.870;2022-09-03T15:07:29;4.35;;;1.55;;
69244;SDS011;56357;52.304;4.870;2022-09-03T15:10:11;4.82;;;1.33;;
69244;SDS011;56357;52.304;4.870;2022-09-03T15:12:43;6.50;;;1.77;;
69244;SDS011;56357;52.304;4.870;2022-09-03T15:15:32;8.53;;;1.67;;
69244;SDS011;56357;52.304;4.870;2022-09-03T15:21:15;4.75;;;1.38;;
69244;SDS011;56357;52.304;4.870;2022-09-03T15:32:10;5.63;;;1.40;;
69244;SDS011;56357;52.304;4.870;2022-09-03T15:35:08;5.82;;;1.50;;
69244;SDS011;56357;52.304;4.870;2022-09-03T15:37:43;5.55;;;1.63;;
69244;SDS011;56357;52.304;4.870;2022-09-03T15:40:35;7.60;;;1.77;;
69244;SDS011;56357;52.304;4.870;2022-09-03T15:43:09;6.27;;;1.63;;
69244;SDS011;56357;52.304;4.870;2022-09-03T15:51:09;5.85;;;1.50;;
69244;SDS011;56357;52.304;4.870;2022-09-03T15:56:40;4.60;;;1.33;;
69244;SDS011;56357;52.304;4.870;2022-09-03T16:02:14;8.02;;;1.98;;
69244;SDS011;56357;52.304;4.870;2022-09-03T16:15:47;4.80;;;2.00;;
69244;SDS011;56357;52.304;4.870;2022-09-03T16:18:38;7.85;;;1.60;;
69244;SDS011;56357;52.304;4.870;2022-09-03T16:24:22;5.90;;;1.83;;
69244;SDS011;56357;52.304;4.870;2022-09-03T16:26:50;10.10;;;2.17;;
69244;SDS011;56357;52.304;4.870;2022-09-03T16:29:28;6.00;;;1.80;;
69244;SDS011;56357;52.304;4.870;2022-09-03T16:46:00;10.13;;;2.28;;
69244;SDS011;56357;52.304;4.870;2022-09-03T16:54:09;10.27;;;1.98;;
69244;SDS011;56357;52.304;4.870;2022-09-03T16:59:48;6.65;;;1.92;;
69244;SDS011;56357;52.304;4.870;2022-09-03T17:26:26;5.97;;;1.70;;
69244;SDS011;56357;52.304;4.870;2022-09-03T17:34:52;6.60;;;1.52;;
69244;SDS011;56357;52.304;4.870;2022-09-03T17:40:21;5.35;;;1.75;;
69244;SDS011;56357;52.304;4.870;2022-09-03T17:43:14;6.07;;;2.22;;
69244;SDS011;56357;52.304;4.870;2022-09-03T17:51:05;3.83;;;1.60;;
69244;SDS011;56357;52.304;4.870;2022-09-03T17:53:53;6.18;;;1.60;;
69244;SDS011;56357;52.304;4.870;2022-09-03T17:56:29;8.63;;;1.70;;
69244;SDS011;56357;52.304;4.870;2022-09-03T18:02:07;7.50;;;1.77;;
69244;SDS011;56357;52.304;4.870;2022-09-03T18:04:48;8.15;;;2.10;;
69244;SDS011;56357;52.304;4.870;2022-09-03T18:07:23;4.72;;;1.60;;
69244;SDS011;56357;52.304;4.870;2022-09-03T18:15:53;6.45;;;1.98;;
69244;SDS011;56357;52.304;4.870;2022-09-03T18:18:31;6.82;;;2.08;;
69244;SDS011;56357;52.304;4.870;2022-09-03T18:20:59;5.30;;;1.75;;
69244;SDS011;56357;52.304;4.870;2022-09-03T18:24:04;4.88;;;2.13;;
69244;SDS011;56357;52.304;4.870;2022-09-03T18:26:55;5.83;;;1.50;;
69244;SDS011;56357;52.304;4.870;2022-09-03T18:29:44;7.53;;;1.90;;
69244;SDS011;56357;52.304;4.870;2022-09-03T18:32:31;5.50;;;1.85;;
69244;SDS011;56357;52.304;4.870;2022-09-03T18:35:15;6.03;;;1.80;;
69244;SDS011;56357;52.304;4.870;2022-09-03T18:38:01;6.07;;;1.83;;
69244;SDS011;56357;52.304;4.870;2022-09-03T18:40:58;6.83;;;1.90;;
69244;SDS011;56357;52.304;4.870;2022-09-03T18:47:08;7.28;;;2.22;;
69244;SDS011;56357;52.304;4.870;2022-09-03T18:50:19;5.93;;;2.10;;
69244;SDS011;56357;52.304;4.870;2022-09-03T19:02:09;6.80;;;2.35;;
69244;SDS011;56357;52.304;4.870;2022-09-03T19:05:14;7.25;;;2.15;;
69244;SDS011;56357;52.304;4.870;2022-09-03T19:08:24;4.97;;;2.22;;
69244;SDS011;56357;52.304;4.870;2022-09-03T19:11:22;7.00;;;2.60;;
69244;SDS011;56357;52.304;4.870;2022-09-03T19:14:46;8.27;;;2.55;;
69244;SDS011;56357;52.304;4.870;2022-09-03T19:18:16;8.70;;;2.60;;
69244;SDS011;56357;52.304;4.870;2022-09-03T19:21:18;5.85;;;2.40;;
69244;SDS011;56357;52.304;4.870;2022-09-03T19:24:12;5.90;;;2.47;;
69244;SDS011;56357;52.304;4.870;2022-09-03T19:27:13;8.53;;;2.80;;
69244;SDS011;56357;52.304;4.870;2022-09-03T19:30:52;12.73;;;2.83;;
69244;SDS011;56357;52.304;4.870;2022-09-03T19:33:34;7.10;;;2.35;;
69244;SDS011;56357;52.304;4.870;2022-09-03T19:52:09;7.40;;;2.63;;
69244;SDS011;56357;52.304;4.870;2022-09-03T19:55:00;6.78;;;2.95;;
69244;SDS011;56357;52.304;4.870;2022-09-03T19:57:46;7.40;;;2.30;;
69244;SDS011;56357;52.304;4.870;2022-09-03T20:00:39;5.63;;;2.58;;
69244;SDS011;56357;52.304;4.870;2022-09-03T20:03:23;5.60;;;2.47;;
69244;SDS011;56357;52.304;4.870;2022-09-03T20:06:07;6.40;;;2.92;;
69244;SDS011;56357;52.304;4.870;2022-09-03T20:08:52;5.88;;;2.58;;
69244;SDS011;56357;52.304;4.870;2022-09-03T20:11:42;6.17;;;2.53;;
69244;SDS011;56357;52.304;4.870;2022-09-03T20:14:12;7.18;;;2.20;;
69244;SDS011;56357;52.304;4.870;2022-09-03T20:22:22;5.10;;;2.15;;
69244;SDS011;56357;52.304;4.870;2022-09-03T20:30:18;4.80;;;2.30;;
69244;SDS011;56357;52.304;4.870;2022-09-03T20:41:06;5.22;;;2.20;;
69244;SDS011;56357;52.304;4.870;2022-09-03T20:46:37;6.25;;;2.30;;
69244;SDS011;56357;52.304;4.870;2022-09-03T20:52:16;5.57;;;2.00;;
69244;SDS011;56357;52.304;4.870;2022-09-03T21:00:34;5.85;;;2.50;;
69244;SDS011;56357;52.304;4.870;2022-09-03T21:03:14;6.93;;;2.72;;
69244;SDS011;56357;52.304;4.870;2022-09-03T21:25:31;7.22;;;3.00;;
69244;SDS011;56357;52.304;4.870;2022-09-03T21:31:22;7.18;;;2.70;;
69244;SDS011;56357;52.304;4.870;2022-09-03T21:33:57;6.53;;;2.47;;